Time;durP1;ratioP1;P1;durP2;ratioP2;P2;SDS_P1;SDS_P2;PMS_P1;PMS_P2;Temp;Humidity;BMP_temperature;BMP_pressure;BME280_temperature;BME280_humidity;BME280_pressure;Samples;Min_cycle;Max_cycle;Signal;HPM_P1;HPM_P2
2020/12/01 00:00:22;;;;;;;30.10;14.73;;;0.40;72.80;;;;;;5121563;28;20138;-65
2020/12/01 00:02:48;;;;;;;26.08;13.55;;;0.50;73.10;;;;;;5121513;28;20088;-65
2020/12/01 00:05:14;;;;;;;30.65;15.50;;;0.50;73.00;;;;;;5124578;28;20081;-65
2020/12/01 00:07:40;;;;;;;25.02;14.02;;;0.60;73.20;;;;;;5121673;28;20260;-65
2020/12/01 00:10:07;;;;;;;26.10;13.82;;;0.50;73.30;;;;;;5119880;28;20055;-65
2020/12/01 00:12:32;;;;;;;27.73;13.88;;;0.50;72.90;;;;;;5115560;28;20226;-65
2020/12/01 00:14:58;;;;;;;27.95;14.18;;;0.60;72.90;;;;;;5122129;28;20036;-65
2020/12/01 00:17:23;;;;;;;28.13;14.13;;;0.80;72.80;;;;;;5106349;28;20034;-65
2020/12/01 00:19:49;;;;;;;25.52;13.90;;;0.70;72.90;;;;;;5120531;28;20062;-65
2020/12/01 00:22:14;;;;;;;25.02;14.05;;;0.50;73.30;;;;;;5121141;28;20077;-65
2020/12/01 00:24:40;;;;;;;26.50;13.77;;;0.50;73.50;;;;;;5119464;28;20043;-65
2020/12/01 00:27:06;;;;;;;26.88;13.40;;;0.60;73.20;;;;;;5101319;28;20249;-65
2020/12/01 00:29:31;;;;;;;28.35;13.80;;;0.40;73.60;;;;;;5124598;28;20058;-65
2020/12/01 00:31:57;;;;;;;29.17;14.60;;;0.50;73.60;;;;;;5103387;28;20223;-65
2020/12/01 00:34:22;;;;;;;27.95;13.82;;;0.40;73.80;;;;;;5119963;28;20342;-65
2020/12/01 00:36:48;;;;;;;26.88;14.60;;;0.50;73.80;;;;;;5121141;28;20343;-65
2020/12/01 00:39:13;;;;;;;27.60;13.57;;;0.60;74.20;;;;;;5121160;28;20035;-65
2020/12/01 00:41:39;;;;;;;28.25;13.98;;;0.70;74.10;;;;;;5128308;28;20036;-65
2020/12/01 00:44:05;;;;;;;28.05;14.48;;;0.60;73.50;;;;;;5125187;28;20047;-65
2020/12/01 00:46:30;;;;;;;25.83;13.90;;;0.70;73.50;;;;;;5124016;28;20036;-65
2020/12/01 00:48:56;;;;;;;26.98;14.02;;;0.40;72.80;;;;;;5124829;28;20024;-65
2020/12/01 00:51:22;;;;;;;27.73;14.35;;;0.40;73.90;;;;;;5125067;28;20032;-65
2020/12/01 00:53:47;;;;;;;26.60;13.65;;;0.60;73.70;;;;;;5126282;28;20035;-65
2020/12/01 00:56:20;;;;;;;27.13;13.68;;;0.70;73.80;;;;;;5127473;28;20086;-65
2020/12/01 00:58:45;;;;;;;23.90;12.60;;;0.70;73.30;;;;;;5124830;28;20032;-65
2020/12/01 01:01:11;;;;;;;26.42;13.70;;;0.90;73.10;;;;;;5125094;28;20050;-63
2020/12/01 01:03:36;;;;;;;25.90;13.00;;;0.80;72.80;;;;;;5124554;28;20028;-63
2020/12/01 01:06:02;;;;;;;27.33;13.68;;;0.80;73.00;;;;;;5087739;28;20054;-63
2020/12/01 01:08:27;;;;;;;25.92;13.02;;;0.70;72.60;;;;;;5110599;28;20031;-63
2020/12/01 01:10:53;;;;;;;26.65;13.30;;;0.70;73.20;;;;;;5124603;28;20036;-63
2020/12/01 01:13:19;;;;;;;24.13;12.93;;;0.60;72.80;;;;;;5121010;28;20055;-63
2020/12/01 01:15:44;;;;;;;23.77;12.85;;;0.20;73.40;;;;;;5124297;28;20035;-63
2020/12/01 01:18:10;;;;;;;26.08;13.48;;;0.20;74.30;;;;;;5124339;28;20028;-62
2020/12/01 01:20:35;;;;;;;24.95;12.70;;;0.20;74.10;;;;;;5127690;28;20012;-63
2020/12/01 01:23:01;;;;;;;26.50;14.20;;;0.00;74.30;;;;;;5123664;28;20046;-63
2020/12/01 01:25:26;;;;;;;27.10;13.63;;;0.10;74.60;;;;;;5121904;28;20106;-63
2020/12/01 01:27:52;;;;;;;24.23;12.32;;;0.10;74.40;;;;;;5124368;28;20085;-63
2020/12/01 01:30:19;;;;;;;25.48;13.07;;;0.10;74.40;;;;;;5123227;28;20044;-63
2020/12/01 01:32:45;;;;;;;26.25;13.18;;;0.20;74.30;;;;;;5127074;28;20035;-63
2020/12/01 01:35:10;;;;;;;30.27;15.05;;;0.10;74.30;;;;;;5122885;28;20098;-63
2020/12/01 01:37:36;;;;;;;27.77;14.00;;;0.00;74.90;;;;;;5119486;28;20077;-63
2020/12/01 01:40:03;;;;;;;26.15;13.45;;;0.00;75.10;;;;;;5122029;28;20058;-64
2020/12/01 01:42:29;;;;;;;26.73;13.68;;;0.00;74.70;;;;;;5122347;28;20028;-63
2020/12/01 01:44:54;;;;;;;24.95;13.55;;;-3276.60;75.20;;;;;;5126831;28;20046;-63
2020/12/01 01:47:28;;;;;;;26.42;12.95;;;-3276.70;75.20;;;;;;5123085;28;20035;-62
2020/12/01 01:50:22;;;;;;;25.23;13.05;;;0.00;75.10;;;;;;5122413;28;20035;-62
2020/12/01 01:52:49;;;;;;;25.27;12.95;;;-3276.60;75.10;;;;;;5121456;28;20199;-62
2020/12/01 01:55:18;;;;;;;27.40;13.27;;;-3276.60;75.60;;;;;;5123973;28;20032;-63
2020/12/01 01:57:51;;;;;;;26.45;13.13;;;-3276.60;75.30;;;;;;5105438;28;20035;-63
2020/12/01 02:00:57;;;;;;;25.70;13.25;;;-3276.70;75.50;;;;;;5105903;28;20028;-63
2020/12/01 02:03:30;;;;;;;24.52;12.27;;;-3276.70;75.20;;;;;;5111108;28;20031;-62
2020/12/01 02:05:57;;;;;;;24.17;12.77;;;-3276.70;75.60;;;;;;5127059;28;20027;-62
2020/12/01 02:08:22;;;;;;;25.60;13.27;;;0.00;75.50;;;;;;5087660;28;20184;-63
2020/12/01 02:10:48;;;;;;;27.95;14.20;;;0.00;74.60;;;;;;5123401;28;20030;-62
2020/12/01 02:13:13;;;;;;;24.85;13.00;;;0.00;75.10;;;;;;5104812;28;20048;-63
2020/12/01 02:15:39;;;;;;;26.42;13.10;;;0.10;74.70;;;;;;5087912;28;20102;-62
2020/12/01 02:18:04;;;;;;;25.55;13.57;;;0.10;74.90;;;;;;5105693;28;20024;-63
2020/12/01 02:20:30;;;;;;;23.23;12.77;;;0.40;75.30;;;;;;5126191;28;20038;-63
2020/12/01 02:22:56;;;;;;;21.95;12.05;;;0.40;74.70;;;;;;5122805;28;20090;-62
2020/12/01 02:25:21;;;;;;;23.27;12.57;;;0.20;74.90;;;;;;5105425;28;20085;-63
2020/12/01 02:27:49;;;;;;;23.52;12.88;;;0.00;75.40;;;;;;5122876;28;20058;-63
2020/12/01 02:30:14;;;;;;;27.10;13.23;;;0.00;75.40;;;;;;5122444;28;20027;-62
2020/12/01 02:32:40;;;;;;;24.98;13.02;;;0.00;75.60;;;;;;5126523;28;20080;-63
2020/12/01 02:35:09;;;;;;;26.23;12.63;;;0.00;75.20;;;;;;5122771;28;20036;-63
2020/12/01 02:37:35;;;;;;;28.40;13.07;;;0.00;75.10;;;;;;5115781;28;20338;-63
2020/12/01 02:40:00;;;;;;;25.67;13.68;;;0.00;75.00;;;;;;5120748;28;20032;-63
2020/12/01 02:42:27;;;;;;;24.27;12.93;;;0.00;75.30;;;;;;5102005;28;20086;-62
2020/12/01 02:44:53;;;;;;;27.42;13.95;;;0.00;75.00;;;;;;5107831;28;20027;-63
2020/12/01 02:47:19;;;;;;;28.05;12.60;;;0.00;75.00;;;;;;5114596;28;20035;-62
2020/12/01 02:49:45;;;;;;;26.48;13.73;;;0.00;74.40;;;;;;5120241;28;20055;-63
2020/12/01 02:52:10;;;;;;;27.00;12.88;;;0.00;74.60;;;;;;5103363;28;20306;-63
2020/12/01 02:54:36;;;;;;;26.83;13.98;;;0.00;74.40;;;;;;5121532;28;20040;-63
2020/12/01 02:57:01;;;;;;;27.55;13.45;;;0.00;75.10;;;;;;5125828;28;20031;-63
2020/12/01 02:59:27;;;;;;;27.80;13.63;;;0.00;75.40;;;;;;5100770;28;20054;-63
2020/12/01 03:01:53;;;;;;;27.55;13.85;;;0.00;74.90;;;;;;5102414;28;20036;-63
2020/12/01 03:04:18;;;;;;;28.17;14.15;;;0.00;75.20;;;;;;5119379;28;20031;-63
2020/12/01 03:06:44;;;;;;;26.50;12.95;;;-3276.60;75.80;;;;;;5119673;28;20206;-63
2020/12/01 03:09:12;;;;;;;26.00;13.68;;;0.00;75.60;;;;;;5125297;28;20223;-63
2020/12/01 03:11:38;;;;;;;28.05;14.25;;;-3276.70;75.20;;;;;;5119909;28;20055;-62
2020/12/01 03:14:03;;;;;;;27.83;14.15;;;-3276.60;76.20;;;;;;5119097;28;20058;-63
2020/12/01 03:16:29;;;;;;;25.27;13.90;;;-3276.70;75.70;;;;;;5119326;28;20036;-63
2020/12/01 03:18:54;;;;;;;25.83;13.73;;;0.00;75.70;;;;;;5120717;28;20053;-63
2020/12/01 03:21:20;;;;;;;28.52;13.48;;;-3276.70;75.10;;;;;;5125426;28;20032;-63
2020/12/01 03:23:46;;;;;;;31.15;14.43;;;-3276.70;75.20;;;;;;5120159;28;20077;-63
2020/12/01 03:26:16;;;;;;;25.45;13.00;;;-3276.60;75.10;;;;;;5120609;28;20036;-63
2020/12/01 03:28:42;;;;;;;28.27;13.57;;;-3276.60;75.30;;;;;;5118820;28;20042;-63
2020/12/01 03:31:09;;;;;;;26.90;13.77;;;-3276.60;75.30;;;;;;5121516;28;20464;-63
2020/12/01 03:33:34;;;;;;;28.77;13.55;;;-3276.70;75.20;;;;;;5124860;28;20376;-63
2020/12/01 03:36:00;;;;;;;26.40;13.70;;;0.00;75.10;;;;;;5119857;28;20073;-63
2020/12/01 03:38:26;;;;;;;26.70;15.05;;;-3276.70;74.90;;;;;;5101912;28;20035;-63
2020/12/01 03:40:51;;;;;;;24.73;13.20;;;-3276.50;75.00;;;;;;5099979;28;20096;-63
2020/12/01 03:43:17;;;;;;;27.13;13.32;;;-3276.50;75.50;;;;;;5107013;28;20023;-63
2020/12/01 03:45:43;;;;;;;26.60;13.75;;;-3276.60;75.30;;;;;;5120411;28;20040;-63
2020/12/01 03:48:08;;;;;;;26.13;12.93;;;-3276.60;75.10;;;;;;5115892;28;20038;-63
2020/12/01 03:50:34;;;;;;;27.58;13.63;;;0.00;75.30;;;;;;5119942;28;20027;-63
2020/12/01 03:53:00;;;;;;;27.13;13.27;;;0.00;74.40;;;;;;5119739;28;20047;-63
2020/12/01 03:55:25;;;;;;;25.38;13.25;;;0.00;74.30;;;;;;5124982;28;20090;-63
2020/12/01 03:57:51;;;;;;;27.50;13.70;;;0.00;74.50;;;;;;5118025;28;20036;-63
2020/12/01 04:00:27;;;;;;;29.45;14.40;;;0.00;74.10;;;;;;5119318;28;20043;-63
2020/12/01 04:02:54;;;;;;;26.75;14.05;;;0.00;74.40;;;;;;5119347;28;20039;-63
2020/12/01 04:05:21;;;;;;;30.17;14.20;;;-3276.70;74.50;;;;;;5117637;28;20089;-63
2020/12/01 04:07:47;;;;;;;28.13;14.07;;;0.00;74.80;;;;;;5124809;28;20039;-63
2020/12/01 04:10:15;;;;;;;28.55;13.93;;;0.00;74.90;;;;;;5119792;28;20326;-63
2020/12/01 04:12:41;;;;;;;26.27;13.35;;;0.00;74.70;;;;;;5118886;28;20052;-63
2020/12/01 04:15:06;;;;;;;23.20;12.80;;;0.00;74.70;;;;;;5120669;28;20204;-63
2020/12/01 04:17:32;;;;;;;28.83;14.25;;;0.10;74.10;;;;;;5128615;28;20223;-63
2020/12/01 04:19:57;;;;;;;24.48;13.15;;;0.10;73.50;;;;;;5122411;28;20032;-63
2020/12/01 04:22:23;;;;;;;28.67;14.25;;;0.10;74.00;;;;;;5123177;28;20085;-63
2020/12/01 04:24:49;;;;;;;28.38;14.27;;;0.20;73.60;;;;;;5122041;28;20089;-63
2020/12/01 04:27:14;;;;;;;27.65;14.85;;;0.00;74.20;;;;;;5123635;28;20032;-63
2020/12/01 04:29:40;;;;;;;27.15;14.13;;;0.20;73.90;;;;;;5129006;28;20059;-63
2020/12/01 04:32:06;;;;;;;26.95;13.60;;;0.00;73.90;;;;;;5123936;28;20266;-63
2020/12/01 04:34:32;;;;;;;28.80;14.00;;;0.10;74.00;;;;;;5122220;28;20058;-63
2020/12/01 04:36:58;;;;;;;27.67;14.32;;;0.10;74.20;;;;;;5122914;28;20035;-63
2020/12/01 04:39:23;;;;;;;27.23;14.00;;;0.00;74.00;;;;;;5129291;28;20047;-63
2020/12/01 04:41:49;;;;;;;29.30;13.95;;;0.10;74.20;;;;;;5123900;28;20074;-63
2020/12/01 04:44:25;;;;;;;29.77;14.30;;;0.10;74.10;;;;;;5122317;28;20252;-63
2020/12/01 04:46:50;;;;;;;28.05;13.93;;;0.20;73.50;;;;;;5124577;28;20199;-63
2020/12/01 04:49:23;;;;;;;29.25;14.38;;;0.10;73.20;;;;;;5122966;28;20044;-63
2020/12/01 04:52:08;;;;;;;24.50;12.93;;;0.10;73.50;;;;;;5110776;28;20039;-63
2020/12/01 04:54:53;;;;;;;27.45;13.57;;;0.30;73.40;;;;;;5125362;28;20043;-62
2020/12/01 04:57:32;;;;;;;27.42;13.93;;;0.40;73.50;;;;;;5105002;28;20032;-63
2020/12/01 05:00:30;;;;;;;27.83;13.13;;;0.20;72.90;;;;;;5086733;28;20353;-63
2020/12/01 05:02:59;;;;;;;25.20;13.88;;;0.00;73.20;;;;;;5086486;28;20027;-63
2020/12/01 05:05:51;;;;;;;24.77;13.25;;;0.20;73.40;;;;;;5119225;28;20031;-63
2020/12/01 05:08:34;;;;;;;26.23;13.45;;;0.20;72.60;;;;;;5090875;28;20038;-63
2020/12/01 05:11:08;;;;;;;26.40;13.13;;;0.00;73.30;;;;;;5123501;28;20024;-63
2020/12/01 05:13:34;;;;;;;24.42;12.77;;;0.20;73.50;;;;;;5110144;28;20045;-63
2020/12/01 05:16:08;;;;;;;23.83;12.98;;;0.40;73.10;;;;;;5095649;28;20039;-63
2020/12/01 05:18:35;;;;;;;24.58;12.10;;;0.10;73.30;;;;;;5088851;28;20043;-63
2020/12/01 05:21:03;;;;;;;24.63;13.30;;;0.10;72.50;;;;;;5088390;28;20099;-63
2020/12/01 05:23:43;;;;;;;25.63;12.77;;;0.20;73.10;;;;;;5122249;28;20094;-63
2020/12/01 05:26:11;;;;;;;25.20;11.93;;;0.00;72.70;;;;;;5126838;28;20024;-63
2020/12/01 05:28:53;;;;;;;22.73;11.52;;;0.00;73.00;;;;;;5122501;28;20040;-63
2020/12/01 05:31:24;;;;;;;24.50;12.43;;;0.20;73.40;;;;;;5124284;28;20230;-63
2020/12/01 05:34:03;;;;;;;25.45;11.45;;;0.30;72.60;;;;;;5124100;28;20040;-63
2020/12/01 05:36:36;;;;;;;25.92;12.00;;;0.40;72.10;;;;;;5123614;28;20024;-63
2020/12/01 05:39:13;;;;;;;21.33;11.02;;;0.20;72.40;;;;;;5121890;28;20031;-62
2020/12/01 05:41:38;;;;;;;21.27;11.38;;;0.00;73.00;;;;;;5126889;28;20090;-62
2020/12/01 05:44:17;;;;;;;21.70;11.55;;;0.00;72.90;;;;;;5122178;28;20227;-62
2020/12/01 05:46:45;;;;;;;22.20;11.85;;;0.00;73.10;;;;;;5121828;28;20045;-62
2020/12/01 05:49:38;;;;;;;21.83;12.07;;;0.10;73.20;;;;;;5121022;28;20036;-62
2020/12/01 05:52:16;;;;;;;20.73;11.25;;;0.20;73.40;;;;;;5117654;28;20055;-62
2020/12/01 05:54:43;;;;;;;23.42;11.88;;;0.00;73.30;;;;;;5087356;28;20097;-62
2020/12/01 05:57:25;;;;;;;20.83;10.98;;;0.30;73.50;;;;;;5126948;28;20084;-62
2020/12/01 05:59:56;;;;;;;20.13;10.45;;;0.50;72.00;;;;;;5104007;28;20035;-62
2020/12/01 06:02:26;;;;;;;20.30;10.23;;;0.40;71.90;;;;;;5122921;28;20043;-63
2020/12/01 06:04:52;;;;;;;19.13;10.37;;;0.40;71.70;;;;;;5087302;28;20281;-63
2020/12/01 06:07:21;;;;;;;21.42;11.27;;;0.40;72.40;;;;;;5076159;28;20040;-63
2020/12/01 06:09:58;;;;;;;22.02;11.13;;;0.40;72.20;;;;;;5085596;28;20031;-63
2020/12/01 06:12:57;;;;;;;18.60;9.93;;;0.40;72.50;;;;;;5126884;28;20024;-63
2020/12/01 06:15:23;;;;;;;16.67;9.10;;;0.50;72.50;;;;;;5123398;28;20034;-63
2020/12/01 06:17:51;;;;;;;22.65;10.57;;;0.50;71.60;;;;;;5121867;28;20342;-62
2020/12/01 06:20:31;;;;;;;22.02;10.65;;;0.60;72.00;;;;;;5123405;28;20223;-63
2020/12/01 06:23:15;;;;;;;20.27;10.90;;;0.60;71.60;;;;;;5120390;28;20148;-63
2020/12/01 06:26:11;;;;;;;19.02;9.98;;;0.80;72.10;;;;;;5122631;28;20038;-63
2020/12/01 06:29:06;;;;;;;18.23;9.82;;;0.70;71.40;;;;;;5122562;28;20024;-63
2020/12/01 06:32:01;;;;;;;21.58;10.57;;;0.90;71.10;;;;;;5101914;28;20027;-63
2020/12/01 06:34:59;;;;;;;18.90;10.02;;;0.70;71.20;;;;;;5120454;28;20173;-62
2020/12/01 06:37:35;;;;;;;18.25;10.35;;;0.80;72.20;;;;;;5107304;28;20237;-63
2020/12/01 06:40:00;;;;;;;19.15;9.85;;;0.90;71.30;;;;;;5123632;28;20053;-63
2020/12/01 06:42:45;;;;;;;19.30;9.80;;;0.80;71.90;;;;;;5121240;28;20036;-63
2020/12/01 06:45:23;;;;;;;18.95;9.65;;;0.90;71.20;;;;;;5090535;28;20334;-63
2020/12/01 06:47:49;;;;;;;18.08;9.23;;;1.00;71.00;;;;;;5109091;28;20063;-62
2020/12/01 06:50:17;;;;;;;15.95;9.38;;;1.00;70.50;;;;;;5107779;28;20028;-62
2020/12/01 06:52:53;;;;;;;22.58;9.43;;;0.80;71.10;;;;;;5107024;28;20077;-63
2020/12/01 06:55:50;;;;;;;19.80;10.98;;;0.90;70.90;;;;;;5125697;28;20318;-62
2020/12/01 06:58:25;;;;;;;19.65;10.15;;;0.80;71.00;;;;;;5108635;28;20058;-65
2020/12/01 07:01:03;;;;;;;22.77;9.82;;;0.90;71.50;;;;;;5125754;28;20024;-65
2020/12/01 07:03:29;;;;;;;19.45;10.13;;;0.90;71.80;;;;;;5107253;28;20028;-65
2020/12/01 07:05:54;;;;;;;19.33;9.88;;;0.90;72.00;;;;;;5125292;28;20039;-65
2020/12/01 07:08:26;;;;;;;20.45;10.25;;;0.90;71.80;;;;;;5107102;28;20314;-65
2020/12/01 07:11:04;;;;;;;;;;;0.90;72.50;;;;;;5125612;28;20059;-65
2020/12/01 07:13:45;;;;;;;18.92;10.18;;;1.10;72.00;;;;;;5124936;28;19978;-65
2020/12/01 07:16:32;;;;;;;17.88;10.40;;;1.10;71.80;;;;;;5107403;28;20083;-65
2020/12/01 07:19:18;;;;;;;18.75;10.20;;;1.20;72.00;;;;;;5124987;28;20035;-65
2020/12/01 07:22:05;;;;;;;16.50;8.60;;;1.20;71.60;;;;;;5125189;28;20024;-65
2020/12/01 07:24:30;;;;;;;19.95;9.55;;;1.20;71.70;;;;;;5107988;28;20196;-65
2020/12/01 07:27:00;;;;;;;19.92;9.38;;;1.40;71.30;;;;;;5124979;28;20072;-65
2020/12/01 07:29:52;;;;;;;17.48;8.88;;;1.50;71.80;;;;;;5106822;28;20099;-65
2020/12/01 07:32:28;;;;;;;17.40;8.75;;;1.50;71.10;;;;;;5113895;28;20043;-65
2020/12/01 07:35:12;;;;;;;21.48;8.57;;;1.00;71.90;;;;;;5124783;28;20027;-65
2020/12/01 07:37:41;;;;;;;16.88;8.32;;;1.10;72.60;;;;;;5106770;28;20362;-65
2020/12/01 07:40:07;;;;;;;16.48;9.05;;;1.20;72.10;;;;;;5124576;28;20032;-65
2020/12/01 07:42:34;;;;;;;15.48;8.45;;;1.10;73.50;;;;;;5124619;28;20027;-65
2020/12/01 07:45:19;;;;;;;17.40;8.60;;;1.20;73.40;;;;;;5124571;28;20035;-65
2020/12/01 07:47:44;;;;;;;14.48;7.82;;;1.20;73.30;;;;;;5106858;28;20091;-65
2020/12/01 07:50:20;;;;;;;15.60;7.57;;;1.10;72.70;;;;;;5124457;28;20233;-65
2020/12/01 07:52:47;;;;;;;18.52;9.27;;;0.90;73.90;;;;;;5124554;28;20067;-66
2020/12/01 07:55:50;;;;;;;16.67;7.95;;;1.20;73.60;;;;;;5107043;28;20319;-65
2020/12/01 07:58:20;;;;;;;15.40;7.78;;;1.00;73.80;;;;;;5111857;28;20074;-65
2020/12/01 08:00:54;;;;;;;18.55;8.25;;;1.10;73.90;;;;;;5124581;28;20088;-65
2020/12/01 08:03:24;;;;;;;17.60;8.23;;;1.20;74.10;;;;;;5107246;28;20325;-65
2020/12/01 08:05:51;;;;;;;18.08;7.38;;;1.20;74.20;;;;;;5124466;28;20317;-65
2020/12/01 08:08:19;;;;;;;18.67;7.65;;;1.20;73.80;;;;;;5106443;28;20031;-65
2020/12/01 08:10:45;;;;;;;14.80;7.78;;;1.20;74.70;;;;;;5124363;28;20035;-65
2020/12/01 08:13:11;;;;;;;16.73;7.55;;;1.40;74.70;;;;;;5106141;28;20046;-65
2020/12/01 08:15:36;;;;;;;15.68;7.85;;;1.40;75.20;;;;;;5106390;28;20313;-65
2020/12/01 08:18:05;;;;;;;14.05;7.80;;;1.20;75.10;;;;;;5124652;28;20027;-65
2020/12/01 08:20:31;;;;;;;22.55;8.10;;;1.40;75.50;;;;;;5106626;28;20230;-65
2020/12/01 08:23:05;;;;;;;14.95;7.45;;;1.50;75.40;;;;;;5124380;28;20031;-64
2020/12/01 08:25:31;;;;;;;14.52;7.40;;;1.40;75.40;;;;;;5089614;28;20042;-63
2020/12/01 08:28:05;;;;;;;15.80;7.72;;;1.40;76.00;;;;;;5106215;28;20024;-64
2020/12/01 08:30:56;;;;;;;17.35;8.00;;;1.50;75.90;;;;;;5099374;28;20054;-64
2020/12/01 08:33:44;;;;;;;16.48;7.57;;;1.70;76.20;;;;;;5122724;28;20326;-64
2020/12/01 08:36:26;;;;;;;13.65;7.65;;;1.70;76.40;;;;;;5105413;28;20032;-64
2020/12/01 08:38:58;;;;;;;;;;;1.70;76.90;;;;;;5124977;28;20031;-64
2020/12/01 08:41:43;;;;;;;15.13;7.47;;;1.60;77.10;;;;;;5105539;28;20174;-64
2020/12/01 08:44:27;;;;;;;18.00;8.25;;;1.80;77.70;;;;;;5122720;28;20035;-64
2020/12/01 08:46:52;;;;;;;16.90;7.95;;;1.80;77.70;;;;;;5105108;28;20039;-64
2020/12/01 08:49:24;;;;;;;17.45;7.97;;;1.80;77.80;;;;;;5122775;28;20137;-64
2020/12/01 08:51:55;;;;;;;16.20;8.20;;;1.90;77.80;;;;;;5122905;28;20032;-64
2020/12/01 08:54:28;;;;;;;17.63;8.05;;;1.90;78.20;;;;;;5122321;28;20051;-63
2020/12/01 08:57:12;;;;;;;17.38;8.35;;;1.90;78.00;;;;;;5106321;28;20031;-63
2020/12/01 08:59:47;;;;;;;15.43;8.35;;;2.00;77.90;;;;;;5107277;28;20059;-63
2020/12/01 09:02:13;;;;;;;14.90;8.38;;;2.00;78.10;;;;;;5107923;28;20058;-63
2020/12/01 09:04:39;;;;;;;15.05;7.82;;;2.00;78.00;;;;;;5091290;28;20326;-63
2020/12/01 09:07:49;;;;;;;13.45;7.15;;;2.10;77.90;;;;;;5125481;28;20035;-62
2020/12/01 09:10:22;;;;;;;14.30;8.30;;;2.20;77.60;;;;;;5123021;28;20065;-63
2020/12/01 09:13:09;;;;;;;14.20;7.22;;;2.40;77.00;;;;;;5108219;28;20036;-62
2020/12/01 09:23:26;;;;;;;14.35;6.97;;;2.20;76.20;;;;;;5123524;28;20110;-62
2020/12/01 09:25:53;;;;;;;11.25;6.07;;;2.40;76.30;;;;;;5122556;28;20350;-62
2020/12/01 09:28:25;;;;;;;14.15;5.80;;;2.30;75.20;;;;;;5125679;28;20039;-61
2020/12/01 09:30:51;;;;;;;9.02;5.20;;;2.50;75.40;;;;;;5100246;28;20040;-61
2020/12/01 09:33:21;;;;;;;14.35;6.00;;;2.70;75.40;;;;;;5124298;28;22209;-60
2020/12/01 09:35:47;;;;;;;12.80;5.43;;;2.70;74.90;;;;;;5127151;28;20035;-60
2020/12/01 09:38:13;;;;;;;10.82;5.50;;;2.70;75.20;;;;;;5123037;28;20599;-61
2020/12/01 09:40:39;;;;;;;10.30;5.18;;;2.60;74.60;;;;;;5118605;28;20084;-62
2020/12/01 09:45:39;;;;;;;8.82;5.18;;;2.80;75.10;;;;;;5116087;28;20035;-62
2020/12/01 09:48:13;;;;;;;14.25;5.82;;;2.90;74.80;;;;;;5123177;28;20027;-62
2020/12/01 09:50:39;;;;;;;8.45;4.97;;;2.90;74.70;;;;;;5126872;28;20027;-62
2020/12/01 10:21:21;;;;;;;10.45;3.92;;;3.10;76.30;;;;;;5126283;28;19900;-62
2020/12/01 10:37:16;;;;;;;10.77;3.95;;;3.20;75.80;;;;;;5123394;28;20208;-61
2020/12/01 10:39:41;;;;;;;10.18;4.60;;;3.10;76.00;;;;;;5104396;28;20047;-62
2020/12/01 10:42:11;;;;;;;13.30;4.70;;;3.30;75.90;;;;;;5121892;28;20047;-62
2020/12/01 10:44:36;;;;;;;13.02;4.22;;;3.10;75.90;;;;;;5107570;28;20168;-61
2020/12/01 10:47:02;;;;;;;9.35;3.92;;;3.10;76.70;;;;;;5120777;28;20103;-61
2020/12/01 10:49:28;;;;;;;13.32;4.60;;;3.30;76.30;;;;;;5117874;28;20054;-62
2020/12/01 10:51:53;;;;;;;12.63;4.25;;;3.20;76.20;;;;;;5107387;28;20091;-62
2020/12/01 10:54:19;;;;;;;11.70;4.40;;;3.30;76.30;;;;;;5120805;28;20052;-62
2020/12/01 10:56:48;;;;;;;9.82;4.45;;;3.40;76.50;;;;;;5125830;28;20079;-63
2020/12/01 10:59:14;;;;;;;8.82;4.05;;;3.40;76.00;;;;;;5124273;28;20039;-62
2020/12/01 11:01:40;;;;;;;11.27;4.20;;;3.30;76.00;;;;;;5103189;28;20043;-63
2020/12/01 11:04:05;;;;;;;8.30;4.40;;;3.50;76.00;;;;;;5122962;28;20327;-63
2020/12/01 11:06:31;;;;;;;6.72;4.22;;;3.60;76.70;;;;;;5120913;28;20058;-62
2020/12/01 11:08:57;;;;;;;10.48;4.35;;;3.60;75.70;;;;;;5125540;28;20348;-63
2020/12/01 11:11:22;;;;;;;10.95;4.70;;;3.60;75.70;;;;;;5122227;28;20034;-63
2020/12/01 11:13:48;;;;;;;10.75;4.43;;;3.30;76.60;;;;;;5097442;28;20039;-63
2020/12/01 11:16:13;;;;;;;11.55;5.18;;;3.00;77.90;;;;;;5120460;28;20087;-62
2020/12/01 11:18:40;;;;;;;13.27;4.47;;;3.10;78.00;;;;;;5121278;28;20081;-62
2020/12/01 11:21:05;;;;;;;9.43;4.65;;;3.30;77.90;;;;;;5104775;28;20023;-62
2020/12/01 11:23:31;;;;;;;8.85;4.57;;;3.40;77.20;;;;;;5123563;28;20037;-63
2020/12/01 11:25:56;;;;;;;12.07;5.18;;;3.70;77.30;;;;;;5119760;28;20035;-63
2020/12/01 11:28:22;;;;;;;9.30;4.68;;;3.70;76.80;;;;;;5108593;28;20386;-63
2020/12/01 11:30:47;;;;;;;12.18;4.75;;;3.90;76.80;;;;;;5121753;28;20032;-63
2020/12/01 11:33:13;;;;;;;9.95;5.00;;;3.80;76.70;;;;;;5118228;28;20086;-63
2020/12/01 11:35:39;;;;;;;8.32;4.35;;;3.80;76.70;;;;;;5125113;28;20084;-62
2020/12/01 11:38:04;;;;;;;10.57;4.30;;;3.80;76.90;;;;;;5102322;28;20028;-63
2020/12/01 11:40:30;;;;;;;8.68;4.32;;;3.80;76.40;;;;;;5101146;28;20051;-64
2020/12/01 11:42:55;;;;;;;10.15;4.63;;;3.90;76.30;;;;;;5100497;28;20351;-63
2020/12/01 11:45:21;;;;;;;11.52;4.68;;;4.00;76.50;;;;;;5115091;28;20086;-63
2020/12/01 11:47:47;;;;;;;11.57;4.75;;;4.00;76.10;;;;;;5125029;28;20030;-64
2020/12/01 11:50:12;;;;;;;8.82;3.90;;;4.00;75.90;;;;;;5120262;28;20127;-63
2020/12/01 11:52:38;;;;;;;10.82;3.90;;;3.90;76.20;;;;;;5103048;28;20028;-63
2020/12/01 11:55:04;;;;;;;12.13;4.50;;;3.80;76.60;;;;;;5121817;28;20044;-63
2020/12/01 11:57:30;;;;;;;14.02;5.05;;;3.90;76.50;;;;;;5104833;28;20033;-63
2020/12/01 11:59:56;;;;;;;9.52;4.15;;;3.90;76.60;;;;;;5123985;28;20257;-63
2020/12/01 12:02:21;;;;;;;8.85;4.55;;;4.10;76.70;;;;;;5118152;28;20043;-63
2020/12/01 12:04:47;;;;;;;8.50;4.25;;;4.30;76.50;;;;;;5119119;28;20038;-63
2020/12/01 12:07:12;;;;;;;13.70;4.30;;;4.40;76.50;;;;;;5116691;28;20039;-62
2020/12/01 12:09:38;;;;;;;7.68;4.47;;;4.40;76.30;;;;;;5120250;28;20252;-62
2020/12/01 12:12:03;;;;;;;8.43;4.43;;;4.40;76.80;;;;;;5124334;28;20225;-63
2020/12/01 12:14:29;;;;;;;10.93;4.72;;;4.40;76.90;;;;;;5101290;28;20040;-63
2020/12/01 12:16:55;;;;;;;9.18;4.53;;;4.20;76.50;;;;;;5102110;28;20375;-66
2020/12/01 12:19:20;;;;;;;13.57;5.07;;;4.40;76.60;;;;;;5086481;28;20275;-66
2020/12/01 12:21:46;;;;;;;10.75;4.90;;;4.40;76.50;;;;;;5120676;28;20036;-65
2020/12/01 12:24:12;;;;;;;10.18;4.90;;;4.50;76.40;;;;;;5110218;28;20031;-63
2020/12/01 12:26:37;;;;;;;9.10;4.70;;;4.50;76.60;;;;;;5103060;28;20036;-66
2020/12/01 12:29:03;;;;;;;12.20;4.47;;;4.50;76.20;;;;;;5121013;28;20361;-66
2020/12/01 12:31:28;;;;;;;12.30;5.00;;;4.40;76.10;;;;;;5118686;28;20032;-65
2020/12/01 12:33:54;;;;;;;10.13;5.32;;;4.50;76.10;;;;;;5119853;28;20084;-64
2020/12/01 12:36:19;;;;;;;15.63;5.45;;;4.60;76.40;;;;;;5119723;28;20086;-65
2020/12/01 12:38:45;;;;;;;12.07;5.13;;;4.50;76.90;;;;;;5128824;28;20249;-66
2020/12/01 12:41:11;;;;;;;13.02;5.50;;;4.60;77.20;;;;;;5103660;28;20058;-65
2020/12/01 12:43:36;;;;;;;8.48;5.38;;;4.50;77.20;;;;;;5109767;28;20037;-65
2020/12/01 12:46:02;;;;;;;12.50;5.50;;;4.60;77.50;;;;;;5123998;28;20044;-66
2020/12/01 12:48:28;;;;;;;12.43;5.45;;;4.40;77.60;;;;;;5124202;28;20192;-66
2020/12/01 12:50:54;;;;;;;14.45;5.63;;;4.50;78.00;;;;;;5110631;28;20313;-65
2020/12/01 12:53:20;;;;;;;8.95;5.00;;;4.40;76.80;;;;;;5106225;28;20103;-65
2020/12/01 12:55:45;;;;;;;8.55;4.85;;;4.40;77.20;;;;;;5124568;28;20222;-65
2020/12/01 12:58:11;;;;;;;10.65;5.60;;;4.50;77.00;;;;;;5106542;28;20243;-65
2020/12/01 13:00:37;;;;;;;10.73;5.85;;;4.40;77.10;;;;;;5117604;28;20355;-65
2020/12/01 13:03:02;;;;;;;10.57;5.50;;;4.40;77.50;;;;;;5128056;28;20024;-65
2020/12/01 13:05:29;;;;;;;9.02;5.25;;;4.40;76.90;;;;;;5123413;28;20043;-65
2020/12/01 13:07:55;;;;;;;11.50;6.28;;;4.40;76.80;;;;;;5122435;28;20323;-65
2020/12/01 13:10:21;;;;;;;9.95;5.57;;;4.40;76.80;;;;;;5122760;28;20059;-65
2020/12/01 13:12:46;;;;;;;13.85;6.18;;;4.40;76.80;;;;;;5123226;28;20036;-64
2020/12/01 13:15:12;;;;;;;9.45;5.72;;;4.20;77.30;;;;;;5127659;28;20087;-64
2020/12/01 13:17:40;;;;;;;14.50;6.40;;;4.30;77.60;;;;;;5121536;28;20231;-64
2020/12/01 13:20:06;;;;;;;10.73;5.43;;;4.20;77.80;;;;;;5121140;28;20353;-63
2020/12/01 13:22:32;;;;;;;11.02;5.40;;;4.20;78.00;;;;;;5121309;28;20040;-63
2020/12/01 13:24:57;;;;;;;16.38;6.30;;;4.20;77.80;;;;;;5122987;28;20265;-65
2020/12/01 13:27:23;;;;;;;15.57;6.50;;;3.90;78.50;;;;;;5121220;28;20366;-65
2020/12/01 13:29:48;;;;;;;13.25;6.47;;;4.10;78.20;;;;;;5127560;28;20020;-66
2020/12/01 13:32:14;;;;;;;9.38;6.00;;;3.90;79.10;;;;;;5120078;28;20034;-65
2020/12/01 13:34:39;;;;;;;9.63;5.72;;;4.10;79.00;;;;;;5105032;28;20050;-65
2020/12/01 13:37:06;;;;;;;15.00;7.20;;;4.20;78.50;;;;;;5123072;28;20039;-65
2020/12/01 13:39:31;;;;;;;10.80;6.28;;;4.20;78.50;;;;;;5102207;28;20047;-65
2020/12/01 13:41:57;;;;;;;11.25;5.85;;;4.30;78.70;;;;;;5127635;28;20031;-65
2020/12/01 13:44:23;;;;;;;14.68;6.07;;;4.20;78.80;;;;;;5122997;28;20095;-65